sensor_id;sensor_type;location;lat;lon;timestamp;pressure;altitude;pressure_sealevel;temperature;humidity
85560;BME280;76003;49.038;16.594;2024-02-21T00:02:04;100376.34;;;6.53;73.73
85560;BME280;76003;49.038;16.594;2024-02-21T00:04:51;100359.81;;;6.43;73.84
85560;BME280;76003;49.038;16.594;2024-02-21T00:07:16;100387.56;;;6.57;73.53
85560;BME280;76003;49.038;16.594;2024-02-21T00:10:19;100375.91;;;6.56;73.55
85560;BME280;76003;49.038;16.594;2024-02-21T00:13:44;100346.00;;;6.33;73.81
85560;BME280;76003;49.038;16.594;2024-02-21T00:17:10;100369.00;;;6.42;74.59
85560;BME280;76003;49.038;16.594;2024-02-21T00:19:36;100383.03;;;6.39;75.12
85560;BME280;76003;49.038;16.594;2024-02-21T00:22:22;100382.22;;;6.39;74.87
85560;BME280;76003;49.038;16.594;2024-02-21T00:25:03;100364.03;;;6.28;75.06
85560;BME280;76003;49.038;16.594;2024-02-21T00:27:44;100374.31;;;6.37;74.62
85560;BME280;76003;49.038;16.594;2024-02-21T00:30:24;100371.47;;;6.32;75.38
85560;BME280;76003;49.038;16.594;2024-02-21T00:33:05;100374.19;;;6.32;75.01
85560;BME280;76003;49.038;16.594;2024-02-21T00:35:45;100339.91;;;6.08;75.14
85560;BME280;76003;49.038;16.594;2024-02-21T00:38:11;100338.03;;;6.09;74.99
85560;BME280;76003;49.038;16.594;2024-02-21T00:40:58;100339.09;;;6.08;75.46
85560;BME280;76003;49.038;16.594;2024-02-21T00:43:24;100345.59;;;6.07;75.33
85560;BME280;76003;49.038;16.594;2024-02-21T00:46:10;100343.31;;;6.04;76.20
85560;BME280;76003;49.038;16.594;2024-02-21T00:49:35;100360.22;;;6.17;75.36
85560;BME280;76003;49.038;16.594;2024-02-21T00:53:01;100354.19;;;6.15;76.69
85560;BME280;76003;49.038;16.594;2024-02-21T00:55:27;100344.53;;;6.08;76.13
85560;BME280;76003;49.038;16.594;2024-02-21T00:58:13;100310.16;;;5.90;76.60
85560;BME280;76003;49.038;16.594;2024-02-21T01:01:38;100311.81;;;5.91;77.03
85560;BME280;76003;49.038;16.594;2024-02-21T01:05:07;100320.28;;;5.95;76.87
85560;BME280;76003;49.038;16.594;2024-02-21T01:08:32;100319.59;;;5.99;77.81
85560;BME280;76003;49.038;16.594;2024-02-21T01:11:58;100326.09;;;5.98;77.78
85560;BME280;76003;49.038;16.594;2024-02-21T01:14:23;100291.66;;;5.69;78.16
85560;BME280;76003;49.038;16.594;2024-02-21T01:17:10;100323.72;;;5.90;78.99
85560;BME280;76003;49.038;16.594;2024-02-21T01:19:36;100318.38;;;5.84;78.96
85560;BME280;76003;49.038;16.594;2024-02-21T01:22:22;100301.06;;;5.67;79.33
85560;BME280;76003;49.038;16.594;2024-02-21T01:25:03;100299.06;;;5.62;79.54
85560;BME280;76003;49.038;16.594;2024-02-21T01:27:44;100312.53;;;5.69;78.77
85560;BME280;76003;49.038;16.594;2024-02-21T01:30:10;100284.78;;;5.55;79.07
85560;BME280;76003;49.038;16.594;2024-02-21T01:32:57;100323.63;;;5.79;79.39
85560;BME280;76003;49.038;16.594;2024-02-21T01:35:37;100319.41;;;5.83;78.70
85560;BME280;76003;49.038;16.594;2024-02-21T01:38:18;100276.41;;;5.57;79.28
85560;BME280;76003;49.038;16.594;2024-02-21T01:40:59;100269.19;;;5.51;79.16
85560;BME280;76003;49.038;16.594;2024-02-21T01:43:39;100308.53;;;5.71;79.70
85560;BME280;76003;49.038;16.594;2024-02-21T01:46:20;100278.16;;;5.51;79.68
85560;BME280;76003;49.038;16.594;2024-02-21T01:49:01;100281.84;;;5.57;79.41
85560;BME280;76003;49.038;16.594;2024-02-21T01:51:27;100275.22;;;5.53;79.56
85560;BME280;76003;49.038;16.594;2024-02-21T01:54:14;100300.38;;;5.71;79.28
85560;BME280;76003;49.038;16.594;2024-02-21T01:56:42;100292.72;;;5.68;79.40
85560;BME280;76003;49.038;16.594;2024-02-21T01:59:29;100295.94;;;5.77;79.03
85560;BME280;76003;49.038;16.594;2024-02-21T02:02:54;100295.72;;;5.78;79.00
85560;BME280;76003;49.038;16.594;2024-02-21T02:05:21;100295.94;;;5.77;79.08
85560;BME280;76003;49.038;16.594;2024-02-21T02:08:24;100284.72;;;5.73;79.41
85560;BME280;76003;49.038;16.594;2024-02-21T02:11:50;100272.69;;;5.69;79.10
85560;BME280;76003;49.038;16.594;2024-02-21T02:15:16;100288.63;;;5.77;79.27
85560;BME280;76003;49.038;16.594;2024-02-21T02:18:41;100288.72;;;5.71;80.26
85560;BME280;76003;49.038;16.594;2024-02-21T02:22:10;100281.75;;;5.63;80.30
85560;BME280;76003;49.038;16.594;2024-02-21T02:25:40;100277.84;;;5.59;80.76
85560;BME280;76003;49.038;16.594;2024-02-21T02:28:06;100280.19;;;5.56;81.32
85560;BME280;76003;49.038;16.594;2024-02-21T02:30:53;100278.53;;;5.55;80.74
85560;BME280;76003;49.038;16.594;2024-02-21T02:33:20;100261.28;;;5.49;80.66
85560;BME280;76003;49.038;16.594;2024-02-21T02:36:06;100253.50;;;5.41;81.01
85560;BME280;76003;49.038;16.594;2024-02-21T02:38:47;100265.28;;;5.47;81.17
85560;BME280;76003;49.038;16.594;2024-02-21T02:41:27;100264.22;;;5.48;81.54
85560;BME280;76003;49.038;16.594;2024-02-21T02:44:07;100258.91;;;5.41;81.61
85560;BME280;76003;49.038;16.594;2024-02-21T02:46:34;100262.81;;;5.45;81.49
85560;BME280;76003;49.038;16.594;2024-02-21T02:49:20;100264.50;;;5.46;81.14
85560;BME280;76003;49.038;16.594;2024-02-21T02:51:45;100257.16;;;5.47;81.78
85560;BME280;76003;49.038;16.594;2024-02-21T02:54:11;100256.38;;;5.46;81.45
85560;BME280;76003;49.038;16.594;2024-02-21T02:56:37;100238.28;;;5.29;81.68
85560;BME280;76003;49.038;16.594;2024-02-21T02:59:02;100249.50;;;5.44;82.00
85560;BME280;76003;49.038;16.594;2024-02-21T03:01:28;100234.03;;;5.33;81.83
85560;BME280;76003;49.038;16.594;2024-02-21T03:03:54;100236.28;;;5.36;81.71
85560;BME280;76003;49.038;16.594;2024-02-21T03:06:58;100232.59;;;5.30;81.43
85560;BME280;76003;49.038;16.594;2024-02-21T03:09:23;100243.59;;;5.35;82.49
85560;BME280;76003;49.038;16.594;2024-02-21T03:12:10;100235.06;;;5.32;82.35
85560;BME280;76003;49.038;16.594;2024-02-21T03:14:50;100211.81;;;5.13;81.72
85560;BME280;76003;49.038;16.594;2024-02-21T03:17:16;100233.75;;;5.23;82.28
85560;BME280;76003;49.038;16.594;2024-02-21T03:20:58;100194.53;;;4.96;82.51
85560;BME280;76003;49.038;16.594;2024-02-21T03:24:24;100226.91;;;5.20;82.13
85560;BME280;76003;49.038;16.594;2024-02-21T03:27:43;100207.09;;;5.08;82.95
85560;BME280;76003;49.038;16.594;2024-02-21T03:30:09;100210.00;;;5.07;82.73
85560;BME280;76003;49.038;16.594;2024-02-21T03:32:56;100222.41;;;5.14;82.79
85560;BME280;76003;49.038;16.594;2024-02-21T03:35:36;100171.56;;;4.87;82.49
85560;BME280;76003;49.038;16.594;2024-02-21T03:38:18;100217.25;;;5.13;83.05
85560;BME280;76003;49.038;16.594;2024-02-21T03:40:44;100191.47;;;4.92;82.42
85560;BME280;76003;49.038;16.594;2024-02-21T03:43:31;100208.47;;;4.99;82.40
85560;BME280;76003;49.038;16.594;2024-02-21T03:45:57;100195.81;;;4.93;82.68
85560;BME280;76003;49.038;16.594;2024-02-21T03:49:39;100194.75;;;4.94;82.15
85560;BME280;76003;49.038;16.594;2024-02-21T03:52:05;100178.97;;;4.91;82.47
85560;BME280;76003;49.038;16.594;2024-02-21T03:55:47;100219.41;;;5.04;81.84
85560;BME280;76003;49.038;16.594;2024-02-21T03:59:12;100220.16;;;5.11;82.69
85560;BME280;76003;49.038;16.594;2024-02-21T04:02:38;100210.09;;;5.00;82.46
85560;BME280;76003;49.038;16.594;2024-02-21T04:05:04;100231.22;;;5.10;81.89
85560;BME280;76003;49.038;16.594;2024-02-21T04:07:51;100230.47;;;5.03;82.62
85560;BME280;76003;49.038;16.594;2024-02-21T04:11:17;100226.44;;;4.94;82.22
85560;BME280;76003;49.038;16.594;2024-02-21T04:14:44;100198.69;;;4.80;81.75
85560;BME280;76003;49.038;16.594;2024-02-21T04:17:09;100220.31;;;4.98;81.78
85560;BME280;76003;49.038;16.594;2024-02-21T04:20:04;100214.91;;;4.98;81.43
85560;BME280;76003;49.038;16.594;2024-02-21T04:22:46;100227.81;;;5.14;81.21
85560;BME280;76003;49.038;16.594;2024-02-21T04:25:26;100230.91;;;5.18;80.71
85560;BME280;76003;49.038;16.594;2024-02-21T04:27:52;100213.31;;;5.09;80.05
85560;BME280;76003;49.038;16.594;2024-02-21T04:31:34;100188.81;;;5.04;80.04
85560;BME280;76003;49.038;16.594;2024-02-21T04:34:15;100202.78;;;5.19;80.07
85560;BME280;76003;49.038;16.594;2024-02-21T04:36:55;100206.22;;;5.26;80.37
85560;BME280;76003;49.038;16.594;2024-02-21T04:39:36;100181.78;;;5.14;79.56
85560;BME280;76003;49.038;16.594;2024-02-21T04:42:16;100205.16;;;5.27;79.57
85560;BME280;76003;49.038;16.594;2024-02-21T04:44:57;100205.59;;;5.24;80.05
85560;BME280;76003;49.038;16.594;2024-02-21T04:47:23;100183.47;;;5.15;80.11
85560;BME280;76003;49.038;16.594;2024-02-21T04:50:12;100187.69;;;5.11;80.24
85560;BME280;76003;49.038;16.594;2024-02-21T04:52:53;100194.28;;;5.15;80.52
85560;BME280;76003;49.038;16.594;2024-02-21T04:55:33;100190.84;;;5.08;80.14
85560;BME280;76003;49.038;16.594;2024-02-21T04:58:13;100191.41;;;5.10;80.43
85560;BME280;76003;49.038;16.594;2024-02-21T05:00:39;100171.59;;;4.98;80.01
85560;BME280;76003;49.038;16.594;2024-02-21T05:03:26;100159.78;;;4.93;80.76
85560;BME280;76003;49.038;16.594;2024-02-21T05:05:52;100101.63;;;4.54;81.18
85560;BME280;76003;49.038;16.594;2024-02-21T05:08:38;100193.31;;;5.10;80.75
85560;BME280;76003;49.038;16.594;2024-02-21T05:11:04;100162.50;;;4.93;80.93
85560;BME280;76003;49.038;16.594;2024-02-21T05:13:29;100192.25;;;5.11;81.18
85560;BME280;76003;49.038;16.594;2024-02-21T05:15:54;100195.31;;;5.14;80.70
85560;BME280;76003;49.038;16.594;2024-02-21T05:18:20;100189.78;;;5.09;81.03
85560;BME280;76003;49.038;16.594;2024-02-21T05:20:46;100175.66;;;5.07;80.29
85560;BME280;76003;49.038;16.594;2024-02-21T05:23:11;100167.53;;;5.07;80.01
85560;BME280;76003;49.038;16.594;2024-02-21T05:25:58;100168.84;;;5.16;79.94
85560;BME280;76003;49.038;16.594;2024-02-21T05:28:38;100191.97;;;5.30;79.70
85560;BME280;76003;49.038;16.594;2024-02-21T05:31:19;100157.28;;;5.09;79.45
85560;BME280;76003;49.038;16.594;2024-02-21T05:34:00;100191.19;;;5.41;79.26
85560;BME280;76003;49.038;16.594;2024-02-21T05:36:30;100173.50;;;5.27;79.37
85560;BME280;76003;49.038;16.594;2024-02-21T05:39:16;100190.72;;;5.44;78.92
85560;BME280;76003;49.038;16.594;2024-02-21T05:41:42;100162.66;;;5.27;78.13
85560;BME280;76003;49.038;16.594;2024-02-21T05:44:46;100197.69;;;5.52;77.98
85560;BME280;76003;49.038;16.594;2024-02-21T05:48:12;100179.06;;;5.44;78.63
85560;BME280;76003;49.038;16.594;2024-02-21T05:51:37;100190.41;;;5.52;77.77
85560;BME280;76003;49.038;16.594;2024-02-21T05:55:02;100171.75;;;5.33;77.74
85560;BME280;76003;49.038;16.594;2024-02-21T05:57:55;100179.56;;;5.41;78.05
85560;BME280;76003;49.038;16.594;2024-02-21T06:00:21;100167.59;;;5.30;78.50
85560;BME280;76003;49.038;16.594;2024-02-21T06:03:08;100180.13;;;5.43;78.39
85560;BME280;76003;49.038;16.594;2024-02-21T06:05:48;100190.84;;;5.49;77.98
85560;BME280;76003;49.038;16.594;2024-02-21T06:08:29;100178.47;;;5.42;77.41
85560;BME280;76003;49.038;16.594;2024-02-21T06:11:10;100188.31;;;5.54;77.04
85560;BME280;76003;49.038;16.594;2024-02-21T06:13:38;100184.88;;;5.59;76.64
85560;BME280;76003;49.038;16.594;2024-02-21T06:16:26;100176.63;;;5.54;76.99
85560;BME280;76003;49.038;16.594;2024-02-21T06:18:51;100182.66;;;5.67;76.56
85560;BME280;76003;49.038;16.594;2024-02-21T06:21:54;100153.78;;;5.61;76.22
85560;BME280;76003;49.038;16.594;2024-02-21T06:25:20;100187.06;;;5.80;75.99
85560;BME280;76003;49.038;16.594;2024-02-21T06:28:45;100192.97;;;5.88;75.82
85560;BME280;76003;49.038;16.594;2024-02-21T06:32:12;100146.16;;;5.70;74.95
85560;BME280;76003;49.038;16.594;2024-02-21T06:35:06;100151.63;;;5.81;74.87
85560;BME280;76003;49.038;16.594;2024-02-21T06:37:32;100152.47;;;5.93;74.60
85560;BME280;76003;49.038;16.594;2024-02-21T06:40:22;100166.72;;;6.12;74.30
85560;BME280;76003;49.038;16.594;2024-02-21T06:43:48;100170.59;;;6.27;73.48
85560;BME280;76003;49.038;16.594;2024-02-21T06:46:29;100184.66;;;6.36;73.46
85560;BME280;76003;49.038;16.594;2024-02-21T06:48:56;100152.34;;;6.23;73.17
85560;BME280;76003;49.038;16.594;2024-02-21T06:51:43;100183.34;;;6.38;73.46
85560;BME280;76003;49.038;16.594;2024-02-21T06:54:09;100193.94;;;6.51;73.42
85560;BME280;76003;49.038;16.594;2024-02-21T06:56:58;100170.63;;;6.39;72.63
85560;BME280;76003;49.038;16.594;2024-02-21T06:59:25;100201.25;;;6.62;73.35
85560;BME280;76003;49.038;16.594;2024-02-21T07:01:53;100172.94;;;6.58;72.63
85560;BME280;76003;49.038;16.594;2024-02-21T07:04:20;100163.72;;;6.71;71.78
85560;BME280;76003;49.038;16.594;2024-02-21T07:06:45;100179.00;;;6.88;72.49
85560;BME280;76003;49.038;16.594;2024-02-21T07:09:11;100180.41;;;6.91;71.33
85560;BME280;76003;49.038;16.594;2024-02-21T07:11:36;100179.19;;;7.10;70.53
85560;BME280;76003;49.038;16.594;2024-02-21T07:14:02;100155.97;;;7.19;69.85
85560;BME280;76003;49.038;16.594;2024-02-21T07:16:27;100181.69;;;7.56;69.75
85560;BME280;76003;49.038;16.594;2024-02-21T07:18:55;100167.47;;;7.65;68.24
85560;BME280;76003;49.038;16.594;2024-02-21T07:22:37;100155.09;;;7.91;67.67
85560;BME280;76003;49.038;16.594;2024-02-21T07:25:04;100141.56;;;7.96;66.86
85560;BME280;76003;49.038;16.594;2024-02-21T07:27:50;100178.25;;;8.26;66.21
85560;BME280;76003;49.038;16.594;2024-02-21T07:30:19;100163.31;;;8.29;65.13
85560;BME280;76003;49.038;16.594;2024-02-21T07:33:05;100171.97;;;8.42;65.48
85560;BME280;76003;49.038;16.594;2024-02-21T07:35:47;100150.25;;;8.26;65.11
85560;BME280;76003;49.038;16.594;2024-02-21T07:38:28;100158.66;;;8.24;64.96
85560;BME280;76003;49.038;16.594;2024-02-21T07:40:54;100157.13;;;8.17;65.23
85560;BME280;76003;49.038;16.594;2024-02-21T07:43:34;100175.13;;;8.34;64.63
85560;BME280;76003;49.038;16.594;2024-02-21T07:46:00;100160.69;;;8.17;64.68
85560;BME280;76003;49.038;16.594;2024-02-21T07:48:25;100159.81;;;8.28;65.36
85560;BME280;76003;49.038;16.594;2024-02-21T07:50:52;100160.94;;;8.16;65.81
85560;BME280;76003;49.038;16.594;2024-02-21T07:53:19;100154.00;;;8.25;65.14
85560;BME280;76003;49.038;16.594;2024-02-21T07:55:45;100144.69;;;8.21;65.28
85560;BME280;76003;49.038;16.594;2024-02-21T07:58:10;100153.56;;;8.49;65.07
85560;BME280;76003;49.038;16.594;2024-02-21T08:00:36;100154.47;;;8.55;65.03
85560;BME280;76003;49.038;16.594;2024-02-21T08:03:22;100146.28;;;8.55;64.55
85560;BME280;76003;49.038;16.594;2024-02-21T08:06:03;100151.78;;;9.03;63.68
85560;BME280;76003;49.038;16.594;2024-02-21T08:08:44;100126.00;;;9.11;63.28
85560;BME280;76003;49.038;16.594;2024-02-21T08:11:24;100112.38;;;9.11;62.86
85560;BME280;76003;49.038;16.594;2024-02-21T08:13:50;100151.19;;;9.76;61.68
85560;BME280;76003;49.038;16.594;2024-02-21T08:16:37;100130.59;;;9.95;60.18
85560;BME280;76003;49.038;16.594;2024-02-21T08:19:07;100123.97;;;10.17;59.05
85560;BME280;76003;49.038;16.594;2024-02-21T08:22:09;100108.44;;;10.69;57.43
85560;BME280;76003;49.038;16.594;2024-02-21T08:25:35;100080.84;;;10.76;56.33
85560;BME280;76003;49.038;16.594;2024-02-21T08:29:00;100049.38;;;10.63;56.04
85560;BME280;76003;49.038;16.594;2024-02-21T08:32:25;100049.78;;;11.02;54.79
85560;BME280;76003;49.038;16.594;2024-02-21T08:35:21;100119.91;;;11.93;53.57
85560;BME280;76003;49.038;16.594;2024-02-21T08:37:50;100102.13;;;11.90;53.38
85560;BME280;76003;49.038;16.594;2024-02-21T08:40:37;100092.75;;;12.31;51.46
85560;BME280;76003;49.038;16.594;2024-02-21T08:44:03;100113.00;;;12.40;52.39
85560;BME280;76003;49.038;16.594;2024-02-21T08:47:28;100092.81;;;12.90;51.21
85560;BME280;76003;49.038;16.594;2024-02-21T08:50:54;100103.63;;;12.61;51.88
85560;BME280;76003;49.038;16.594;2024-02-21T08:53:55;100101.91;;;12.80;51.60
85560;BME280;76003;49.038;16.594;2024-02-21T08:56:21;100087.66;;;12.83;51.46
85560;BME280;76003;49.038;16.594;2024-02-21T08:59:07;100096.03;;;12.28;52.50
85560;BME280;76003;49.038;16.594;2024-02-21T09:01:33;100089.72;;;12.38;52.27
85560;BME280;76003;49.038;16.594;2024-02-21T09:05:16;100090.34;;;11.95;53.44
85560;BME280;76003;49.038;16.594;2024-02-21T09:07:57;100097.66;;;12.44;52.52
85560;BME280;76003;49.038;16.594;2024-02-21T09:10:39;100086.69;;;12.44;51.07
85560;BME280;76003;49.038;16.594;2024-02-21T09:13:05;100115.44;;;12.52;50.94
85560;BME280;76003;49.038;16.594;2024-02-21T09:15:53;100098.03;;;12.91;49.35
85560;BME280;76003;49.038;16.594;2024-02-21T09:18:19;100086.91;;;12.63;49.59
85560;BME280;76003;49.038;16.594;2024-02-21T09:22:01;100099.38;;;12.99;49.47
85560;BME280;76003;49.038;16.594;2024-02-21T09:25:27;100103.88;;;13.29;47.84
85560;BME280;76003;49.038;16.594;2024-02-21T09:28:52;100050.28;;;14.55;45.43
85560;BME280;76003;49.038;16.594;2024-02-21T09:31:18;100033.56;;;15.31;42.98
85560;BME280;76003;49.038;16.594;2024-02-21T09:34:05;100090.78;;;16.48;40.93
85560;BME280;76003;49.038;16.594;2024-02-21T09:36:32;100096.63;;;15.83;41.98
85560;BME280;76003;49.038;16.594;2024-02-21T09:39:35;100094.31;;;15.34;43.37
85560;BME280;76003;49.038;16.594;2024-02-21T09:42:20;100076.13;;;14.78;44.58
85560;BME280;76003;49.038;16.594;2024-02-21T09:44:47;100093.56;;;14.68;45.42
85560;BME280;76003;49.038;16.594;2024-02-21T09:50:26;100092.25;;;14.84;44.90
85560;BME280;76003;49.038;16.594;2024-02-21T09:53:14;100097.28;;;15.01;44.87
85560;BME280;76003;49.038;16.594;2024-02-21T09:55:41;100093.31;;;15.49;43.09
85560;BME280;76003;49.038;16.594;2024-02-21T09:58:29;100073.03;;;15.77;42.42
85560;BME280;76003;49.038;16.594;2024-02-21T10:01:10;100071.19;;;16.04;41.65
85560;BME280;76003;49.038;16.594;2024-02-21T10:03:52;100073.78;;;16.28;40.99
85560;BME280;76003;49.038;16.594;2024-02-21T10:06:33;100087.16;;;17.16;38.47
85560;BME280;76003;49.038;16.594;2024-02-21T10:09:25;100088.53;;;17.54;37.77
85560;BME280;76003;49.038;16.594;2024-02-21T10:12:08;100085.88;;;16.13;40.29
85560;BME280;76003;49.038;16.594;2024-02-21T10:15:00;100076.38;;;16.65;39.24
85560;BME280;76003;49.038;16.594;2024-02-21T10:17:46;100075.38;;;16.15;40.81
85560;BME280;76003;49.038;16.594;2024-02-21T10:20:13;100084.19;;;16.31;40.25
85560;BME280;76003;49.038;16.594;2024-02-21T10:23:04;100064.47;;;16.10;40.67
85560;BME280;76003;49.038;16.594;2024-02-21T10:25:34;100067.34;;;15.87;41.43
85560;BME280;76003;49.038;16.594;2024-02-21T10:28:21;100070.31;;;15.21;41.99
85560;BME280;76003;49.038;16.594;2024-02-21T10:30:50;100065.88;;;15.02;42.83
85560;BME280;76003;49.038;16.594;2024-02-21T10:33:38;100080.66;;;14.87;43.17
85560;BME280;76003;49.038;16.594;2024-02-21T10:36:19;100085.59;;;14.67;43.88
85560;BME280;76003;49.038;16.594;2024-02-21T10:38:59;100074.47;;;14.53;44.45
85560;BME280;76003;49.038;16.594;2024-02-21T10:41:41;100078.06;;;14.54;44.40
85560;BME280;76003;49.038;16.594;2024-02-21T10:44:23;100075.53;;;14.57;44.64
85560;BME280;76003;49.038;16.594;2024-02-21T10:47:08;100043.09;;;14.07;45.18
85560;BME280;76003;49.038;16.594;2024-02-21T10:50:00;100087.38;;;13.67;46.10
85560;BME280;76003;49.038;16.594;2024-02-21T10:52:51;100075.66;;;13.90;46.46
85560;BME280;76003;49.038;16.594;2024-02-21T10:55:42;100079.28;;;13.86;46.49
85560;BME280;76003;49.038;16.594;2024-02-21T10:58:25;100052.16;;;13.46;47.79
85560;BME280;76003;49.038;16.594;2024-02-21T11:00:51;100042.16;;;13.26;48.85
85560;BME280;76003;49.038;16.594;2024-02-21T11:03:38;100040.41;;;13.02;49.91
85560;BME280;76003;49.038;16.594;2024-02-21T11:06:05;100050.13;;;13.28;50.81
85560;BME280;76003;49.038;16.594;2024-02-21T11:09:08;100058.53;;;13.41;49.91
85560;BME280;76003;49.038;16.594;2024-02-21T11:11:36;100053.34;;;12.86;52.22
85560;BME280;76003;49.038;16.594;2024-02-21T11:14:26;100028.72;;;12.76;52.52
85560;BME280;76003;49.038;16.594;2024-02-21T11:17:17;100027.78;;;12.42;52.95
85560;BME280;76003;49.038;16.594;2024-02-21T11:19:58;100036.56;;;12.39;54.07
85560;BME280;76003;49.038;16.594;2024-02-21T11:22:42;100016.81;;;12.47;53.98
85560;BME280;76003;49.038;16.594;2024-02-21T11:25:23;100018.19;;;12.44;52.96
85560;BME280;76003;49.038;16.594;2024-02-21T11:28:04;99992.38;;;12.55;52.07
85560;BME280;76003;49.038;16.594;2024-02-21T11:30:47;100003.41;;;12.99;52.50
85560;BME280;76003;49.038;16.594;2024-02-21T11:33:33;99987.25;;;14.40;49.71
85560;BME280;76003;49.038;16.594;2024-02-21T11:35:58;99987.59;;;14.94;48.54
85560;BME280;76003;49.038;16.594;2024-02-21T11:38:45;99972.06;;;17.38;47.77
85560;BME280;76003;49.038;16.594;2024-02-21T11:41:11;99957.28;;;19.07;44.11
85560;BME280;76003;49.038;16.594;2024-02-21T11:43:57;99958.44;;;19.23;37.47
85560;BME280;76003;49.038;16.594;2024-02-21T11:46:23;99953.75;;;18.03;39.63
85560;BME280;76003;49.038;16.594;2024-02-21T11:49:10;99958.03;;;18.09;41.33
85560;BME280;76003;49.038;16.594;2024-02-21T11:51:58;99957.97;;;17.04;39.11
85560;BME280;76003;49.038;16.594;2024-02-21T11:54:39;99952.63;;;16.85;40.00
85560;BME280;76003;49.038;16.594;2024-02-21T11:57:20;99951.56;;;16.95;43.54
85560;BME280;76003;49.038;16.594;2024-02-21T12:00:12;99928.88;;;16.62;43.17
85560;BME280;76003;49.038;16.594;2024-02-21T12:02:53;99949.13;;;15.58;43.61
85560;BME280;76003;49.038;16.594;2024-02-21T12:05:33;99922.72;;;15.57;42.63
85560;BME280;76003;49.038;16.594;2024-02-21T12:08:15;99944.72;;;15.25;44.19
85560;BME280;76003;49.038;16.594;2024-02-21T12:10:42;99952.47;;;15.42;44.03
85560;BME280;76003;49.038;16.594;2024-02-21T12:13:28;99875.72;;;14.71;46.77
85560;BME280;76003;49.038;16.594;2024-02-21T12:15:55;99922.28;;;14.68;45.59
85560;BME280;76003;49.038;16.594;2024-02-21T12:18:41;99930.66;;;14.76;46.79
85560;BME280;76003;49.038;16.594;2024-02-21T12:21:07;99929.22;;;14.79;45.65
85560;BME280;76003;49.038;16.594;2024-02-21T12:23:55;99926.84;;;14.72;46.90
85560;BME280;76003;49.038;16.594;2024-02-21T12:26:35;99936.75;;;14.92;47.16
85560;BME280;76003;49.038;16.594;2024-02-21T12:32:58;99915.59;;;14.32;50.13
85560;BME280;76003;49.038;16.594;2024-02-21T12:35:42;99916.44;;;14.69;45.79
85560;BME280;76003;49.038;16.594;2024-02-21T12:38:36;99922.91;;;13.94;47.51
85560;BME280;76003;49.038;16.594;2024-02-21T12:41:02;99924.41;;;13.87;47.48
85560;BME280;76003;49.038;16.594;2024-02-21T12:43:53;99922.72;;;13.39;48.90
85560;BME280;76003;49.038;16.594;2024-02-21T12:46:20;99876.50;;;13.22;49.85
85560;BME280;76003;49.038;16.594;2024-02-21T12:49:07;99904.16;;;12.92;49.79
85560;BME280;76003;49.038;16.594;2024-02-21T12:51:36;99888.06;;;14.13;52.76
85560;BME280;76003;49.038;16.594;2024-02-21T12:54:24;99906.19;;;13.15;49.05
85560;BME280;76003;49.038;16.594;2024-02-21T12:57:49;99875.59;;;12.59;50.78
85560;BME280;76003;49.038;16.594;2024-02-21T13:01:15;99889.94;;;12.46;51.09
85560;BME280;76003;49.038;16.594;2024-02-21T13:04:40;99874.28;;;12.08;52.07
85560;BME280;76003;49.038;16.594;2024-02-21T13:08:07;99872.31;;;12.19;51.85
85560;BME280;76003;49.038;16.594;2024-02-21T13:11:34;99837.50;;;11.71;52.92
85560;BME280;76003;49.038;16.594;2024-02-21T13:14:59;99846.09;;;12.08;52.26
85560;BME280;76003;49.038;16.594;2024-02-21T13:17:25;99857.03;;;12.03;52.79
85560;BME280;76003;49.038;16.594;2024-02-21T13:20:16;99863.75;;;11.77;52.54
85560;BME280;76003;49.038;16.594;2024-02-21T13:22:42;99859.00;;;12.02;52.56
85560;BME280;76003;49.038;16.594;2024-02-21T13:25:28;99831.81;;;12.11;51.74
85560;BME280;76003;49.038;16.594;2024-02-21T13:27:55;99849.44;;;11.95;51.24
85560;BME280;76003;49.038;16.594;2024-02-21T13:30:42;99846.53;;;12.25;52.02
85560;BME280;76003;49.038;16.594;2024-02-21T13:33:23;99818.75;;;11.98;51.65
85560;BME280;76003;49.038;16.594;2024-02-21T13:35:49;99835.16;;;12.03;51.84
85560;BME280;76003;49.038;16.594;2024-02-21T13:38:30;99819.41;;;11.80;52.42
85560;BME280;76003;49.038;16.594;2024-02-21T13:40:56;99818.81;;;11.88;52.16
85560;BME280;76003;49.038;16.594;2024-02-21T13:43:37;99830.25;;;12.00;52.94
85560;BME280;76003;49.038;16.594;2024-02-21T13:46:03;99828.19;;;12.20;52.10
85560;BME280;76003;49.038;16.594;2024-02-21T13:48:45;99810.59;;;12.31;51.03
85560;BME280;76003;49.038;16.594;2024-02-21T13:51:26;99823.69;;;12.44;50.96
85560;BME280;76003;49.038;16.594;2024-02-21T13:53:52;99819.72;;;12.60;50.50
85560;BME280;76003;49.038;16.594;2024-02-21T13:56:39;99815.31;;;12.59;50.98
85560;BME280;76003;49.038;16.594;2024-02-21T13:59:05;99790.41;;;12.56;50.01
85560;BME280;76003;49.038;16.594;2024-02-21T14:02:14;99818.66;;;12.56;49.60
85560;BME280;76003;49.038;16.594;2024-02-21T14:04:39;99810.09;;;12.63;49.37
85560;BME280;76003;49.038;16.594;2024-02-21T14:07:26;99806.31;;;12.87;48.23
85560;BME280;76003;49.038;16.594;2024-02-21T14:09:52;99777.09;;;12.78;47.66
85560;BME280;76003;49.038;16.594;2024-02-21T14:13:34;99793.66;;;13.20;47.29
85560;BME280;76003;49.038;16.594;2024-02-21T14:17:00;99783.28;;;12.88;48.41
85560;BME280;76003;49.038;16.594;2024-02-21T14:20:26;99791.97;;;12.67;48.55
85560;BME280;76003;49.038;16.594;2024-02-21T14:23:51;99789.56;;;12.60;48.00
85560;BME280;76003;49.038;16.594;2024-02-21T14:27:18;99797.13;;;12.73;48.38
85560;BME280;76003;49.038;16.594;2024-02-21T14:29:43;99786.34;;;12.53;48.65
85560;BME280;76003;49.038;16.594;2024-02-21T14:32:30;99775.53;;;12.67;49.45
85560;BME280;76003;49.038;16.594;2024-02-21T14:34:56;99763.47;;;12.68;49.32